createdAt,value
2023-02-24T00:03:29.459Z,6.06
2023-02-24T00:07:11.625Z,6.10
2023-02-24T00:10:48.956Z,6.09
2023-02-24T00:14:29.846Z,6.11
2023-02-24T00:18:08.578Z,6.14
2023-02-24T00:21:40.268Z,6.11
2023-02-24T00:28:45.214Z,6.09
2023-02-24T00:32:23.558Z,6.07
2023-02-24T00:35:53.279Z,6.05
2023-02-24T00:39:35.016Z,6.05
2023-02-24T00:42:56.991Z,5.95
2023-02-24T01:06:13.005Z,5.83
2023-02-24T01:10:10.327Z,5.83
2023-02-24T01:59:21.149Z,5.52
2023-02-24T02:03:09.367Z,5.57
2023-02-24T02:06:51.467Z,5.58
2023-02-24T02:10:40.016Z,5.54
2023-02-24T02:14:05.320Z,5.50
2023-02-24T02:17:51.773Z,5.50
2023-02-24T02:21:45.102Z,5.51
2023-02-24T02:25:55.800Z,5.54
2023-02-24T02:29:52.832Z,5.53
2023-02-24T02:33:49.250Z,5.55
2023-02-24T02:37:33.314Z,5.52
2023-02-24T02:41:46.911Z,5.54
2023-02-24T02:48:59.960Z,5.58
2023-02-24T02:52:50.314Z,5.59
2023-02-24T02:57:08.459Z,5.57
2023-02-24T03:00:59.862Z,5.60
2023-02-24T03:04:37.363Z,5.75
2023-02-24T03:08:19.996Z,5.82
2023-02-24T03:12:07.998Z,5.67
2023-02-24T03:15:33.134Z,5.58
2023-02-24T03:23:01.226Z,5.65
2023-02-24T03:26:43.861Z,5.64
2023-02-24T03:30:22.866Z,5.65
2023-02-24T03:34:30.620Z,5.58
2023-02-24T03:45:19.225Z,5.60
2023-02-24T03:48:56.718Z,5.52
2023-02-24T03:52:32.692Z,5.68
2023-02-24T04:03:59.121Z,5.47
2023-02-24T04:07:40.821Z,5.45
2023-02-24T04:11:43.269Z,5.48
2023-02-24T04:15:56.221Z,5.54
2023-02-24T04:19:29.195Z,5.48
2023-02-24T04:23:15.293Z,5.47
2023-02-24T04:30:18.961Z,5.49
2023-02-24T04:37:44.303Z,5.46
2023-02-24T04:45:24.448Z,5.69
2023-02-24T04:48:55.355Z,5.64
2023-02-24T04:52:27.027Z,5.49
2023-02-24T04:56:09.377Z,5.46
2023-02-24T04:59:33.343Z,5.74
2023-02-24T05:02:59.134Z,5.72
2023-02-24T05:06:31.233Z,5.59
2023-02-24T05:10:06.781Z,5.54
2023-02-24T05:17:25.248Z,5.59
2023-02-24T05:21:27.617Z,5.50
2023-02-24T05:24:51.324Z,5.51
2023-02-24T05:28:40.874Z,5.50
2023-02-24T05:32:03.033Z,5.50
2023-02-24T05:35:38.907Z,5.47
2023-02-24T05:39:19.974Z,5.44
2023-02-24T05:43:06.797Z,5.46
2023-02-24T05:46:42.078Z,5.45
2023-02-24T05:50:17.998Z,5.47
2023-02-24T05:53:56.631Z,5.48
2023-02-24T05:57:24.250Z,5.49
2023-02-24T06:01:08.776Z,5.61
2023-02-24T06:04:46.703Z,5.60
2023-02-24T06:08:24.488Z,5.63
2023-02-24T06:11:58.637Z,5.77
2023-02-24T06:15:37.660Z,5.74
2023-02-24T06:23:30.387Z,5.71
2023-02-24T06:27:18.865Z,5.77
2023-02-24T06:30:54.110Z,5.84
2023-02-24T06:34:36.272Z,5.82
2023-02-24T06:38:12.441Z,5.87
2023-02-24T06:41:38.122Z,5.91
2023-02-24T06:45:08.605Z,5.99
2023-02-24T06:48:48.459Z,6.22
2023-02-24T06:52:19.304Z,6.24
2023-02-24T06:55:56.965Z,6.33
2023-02-24T06:59:34.837Z,6.62
2023-02-24T07:03:17.253Z,6.71
2023-02-24T07:07:03.834Z,6.55
2023-02-24T07:10:24.759Z,6.67
2023-02-24T07:13:59.680Z,6.85
2023-02-24T07:17:54.278Z,6.93
2023-02-24T07:21:13.891Z,6.88
2023-02-24T07:35:52.161Z,6.93
2023-02-24T07:47:08.568Z,7.93
2023-02-24T07:50:51.165Z,8.39
2023-02-24T07:54:31.019Z,8.71
2023-02-24T07:58:12.157Z,8.53
2023-02-24T08:02:18.194Z,8.77
2023-02-24T08:21:29.814Z,8.64
2023-02-24T08:28:50.125Z,8.60
2023-02-24T08:32:18.980Z,8.92
2023-02-24T08:36:01.966Z,8.97
2023-02-24T08:39:36.855Z,8.96
2023-02-24T08:43:17.503Z,9.04
2023-02-24T08:46:56.714Z,8.76
2023-02-24T08:50:40.246Z,9.19
2023-02-24T08:59:03.070Z,9.35
2023-02-24T09:06:09.256Z,8.91
2023-02-24T09:09:47.366Z,8.79
2023-02-24T09:13:22.143Z,8.85
2023-02-24T09:25:20.087Z,10.17
2023-02-24T09:32:50.355Z,9.99
2023-02-24T09:36:52.075Z,10.84
2023-02-24T09:44:19.562Z,11.22
2023-02-24T09:47:59.972Z,11.15
2023-02-24T09:51:44.194Z,11.24
2023-02-24T10:17:24.413Z,11.86
2023-02-24T10:20:47.283Z,11.89
2023-02-24T10:42:34.953Z,13.79
2023-02-24T10:46:26.368Z,13.79
2023-02-24T10:50:01.149Z,12.89
2023-02-24T10:53:46.114Z,13.52
2023-02-24T10:57:44.771Z,14.20
2023-02-24T11:01:46.051Z,13.08
2023-02-24T11:05:40.991Z,13.85
2023-02-24T11:20:47.445Z,13.16
2023-02-24T11:24:19.041Z,13.68
2023-02-24T11:27:47.003Z,14.07
2023-02-24T11:31:44.630Z,14.67
2023-02-24T11:35:33.530Z,14.47
2023-02-24T11:39:48.930Z,14.09
2023-02-24T11:58:59.319Z,13.81
2023-02-24T19:29:23.613Z,8.49
2023-02-24T19:32:59.754Z,8.47
2023-02-24T19:36:05.468Z,8.37
2023-02-24T19:40:02.819Z,8.22
2023-02-24T19:47:33.572Z,8.09
2023-02-24T19:51:19.555Z,8.11
2023-02-24T19:54:48.514Z,8.11
2023-02-24T19:58:31.857Z,8.26
2023-02-24T20:02:07.176Z,8.17
2023-02-24T20:05:54.585Z,8.06
2023-02-24T20:09:22.532Z,7.97
2023-02-24T20:12:45.265Z,7.93
2023-02-24T20:16:20.155Z,7.97
2023-02-24T20:19:47.238Z,7.97
2023-02-24T20:23:21.481Z,7.77
2023-02-24T20:26:47.697Z,7.57
2023-02-24T20:30:31.389Z,7.48
2023-02-24T20:38:04.437Z,7.30
2023-02-24T20:41:45.635Z,7.25
2023-02-24T20:45:50.174Z,7.20
2023-02-24T20:49:27.095Z,7.09
2023-02-24T20:53:05.322Z,7.05
2023-02-24T20:57:17.855Z,7.02
2023-02-24T21:00:45.561Z,7.06
2023-02-24T21:04:15.680Z,7.05
2023-02-24T21:11:41.622Z,7.04
2023-02-24T21:15:12.384Z,6.88
2023-02-24T21:18:49.045Z,6.92
2023-02-24T21:22:07.370Z,6.88
2023-02-24T21:25:32.433Z,6.80
2023-02-24T21:28:57.486Z,6.73
2023-02-24T21:32:17.113Z,6.68
2023-02-24T21:36:07.643Z,6.44
2023-02-24T21:39:48.666Z,6.43
2023-02-24T21:43:26.965Z,6.35
2023-02-24T21:46:57.834Z,6.15
2023-02-24T21:50:36.440Z,5.98
2023-02-24T21:54:03.246Z,5.85
2023-02-24T21:57:24.831Z,5.77
2023-02-24T22:01:11.319Z,5.67
2023-02-24T22:04:45.258Z,5.66
2023-02-24T22:08:16.538Z,5.63
2023-02-24T22:11:50.745Z,5.54
2023-02-24T22:15:25.144Z,5.42
2023-02-24T22:23:04.825Z,5.31
2023-02-24T22:26:24.648Z,5.10
2023-02-24T22:29:52.021Z,4.98
2023-02-24T22:33:24.299Z,4.86
2023-02-24T22:36:58.959Z,4.78
2023-02-24T22:40:32.406Z,4.76
2023-02-24T22:44:58.555Z,4.74
2023-02-24T22:48:26.906Z,5.05
2023-02-24T22:52:01.328Z,5.29
2023-02-24T22:55:39.892Z,5.40
2023-02-24T22:59:53.673Z,5.28
2023-02-24T23:15:48.749Z,5.66
2023-02-24T23:19:36.309Z,5.65
2023-02-24T23:23:17.635Z,5.66
2023-02-24T23:26:42.806Z,5.71
2023-02-24T23:30:00.392Z,5.74
2023-02-24T23:33:23.450Z,5.68
2023-02-24T23:37:06.048Z,5.54
2023-02-24T23:40:26.921Z,5.51
2023-02-24T23:44:09.472Z,5.44
2023-02-24T23:47:43.662Z,5.45
2023-02-24T23:51:20.784Z,5.53
2023-02-24T23:54:56.451Z,5.61
2023-02-24T23:58:17.143Z,5.64
